Rawlins, WY

2:32 AM MDT on May 30, 2015 (GMT -0600)
Highland Towne | | Change Station
CLOSE
Current Station
Personal Weather Station
Location: Rawlins, WY
Elevation: 6831 ft
Nearby Weather Stations

Elev 6831 ft 41.82 °N, 107.22 °W | Updated 16 seconds ago

Clear
Clear
37.0 °F
Feels Like 37 °F
N
0.0
Wind Variable Wind from West

Today
High -- | Low -- °F
--% Chance of Precip.
Yesterday
High -- | Low -- °F
Precip. -- in
5:37 AM 8:35 PM
Waxing Gibbous, 89% visible
Pressure 30.19 in
Visibility 10.0 miles
Clouds Clear
Windchill 37 °F
Dew Point 36 °F
Humidity 96%
Rainfall 0.00 in
Snow Depth Not available.
UV 0 out of 12
Pollen 1.00 out of 12
Air Quality Not available.
Flu Activity Sporadic
METAR KRWL 300753Z AUTO 34003KT 10SM CLR 04/03 A3031 RMK AO2 SLP222 T00440028

More Conditions Fewer Conditions

Pressure 30.19 in
Visibility 10.0 miles
Clouds Clear
Windchill 37 °F
Dew Point 36 °F
Humidity 96%
Rainfall 0.00 in
Snow Depth Not available.
UV 0 out of 12
Pollen 1.00 out of 12
Air Quality Not available.
Flu Activity Sporadic
METAR KRWL 300753Z AUTO 34003KT 10SM CLR 04/03 A3031 RMK AO2 SLP222 T00440028

More Conditions Fewer Conditions

10-Day Weather Forecast

Almanac

Astronomy

May. 30, 2015 Rise Set
Actual Time
Civil Twilight
Nautical Twilight
Astronomical Twilight
Moon
Length of Visible Light
Length of Day
Tomorrow will be .
, % of the Moon is Illuminated

Today's Extremes

State Highs State Lows

Community

WunderPhotos

Upload Photos

1,825,472 photos uploaded!

WunderBlogs® & News

Nearby

Air Quality

  Air Quality AQ Index Pollutant
Not available.

Snow Depth

Station Depth Elevation

Earthquake Activity

City Distance Mag. Time & Date
Minimum magnitude displayed is 2.5.

Coastal Water Temperatures

Place Temperature

Stations

Nearby Weather Stations

Station Location Temp. Windchill Dew Point Humidity Wind Precip. Elev Updated Type